EJU59NK GMAD-LFMN
Flight info
| Callsign | EJU59NK |
|---|---|
| Flight time | N/A |
| Altitude | 40000 |
| Route | KEGAG UG664 TOPMA UM372 FES UG850 BERUM N860 BEGOX M445 SOPET M985 BCN DCT FEVIK DCT DALIN DCT PIVUS DCT DIBER/N0488F340 DCT SOSUR DCT SOFFY DCT MRM DCT ABLAK |
| Aircraft | A35K/H-SDE2E3GHIJ3J4J5LM1ORWXY/LB1D1 |
Departure
| Time | 2026-04-16 09:24 |
|---|---|
| Airport | Al Massira Airport (GMAD) |
Arrival
| Time | N/A |
|---|---|
| Airport | Nice-Côte d'Azur Airport (LFMN) |
| Time | Latitude | Longitude | Altitude | Speed | Heading |
|---|---|---|---|---|---|
| 2026-04-16 08:18 | 30.32892 | -9.41010 | 242 ft | 0 kts | 321° |
| 2026-04-16 09:13 | 30.32890 | -9.41009 | 242 ft | 4 kts | 322° |
| 2026-04-16 09:13 | 30.32869 | -9.40991 | 242 ft | 4 kts | 331° |
| 2026-04-16 09:14 | 30.32845 | -9.40987 | 242 ft | 4 kts | 358° |
| 2026-04-16 09:14 | 30.32818 | -9.40983 | 242 ft | 4 kts | 348° |
| 2026-04-16 09:14 | 30.32792 | -9.40977 | 243 ft | 3 kts | 346° |
| 2026-04-16 09:14 | 30.32789 | -9.40976 | 243 ft | 0 kts | 346° |
| 2026-04-16 09:16 | 30.32790 | -9.40976 | 243 ft | 1 kts | 346° |
| 2026-04-16 09:17 | 30.32797 | -9.40984 | 242 ft | 3 kts | 319° |
| 2026-04-16 09:17 | 30.32812 | -9.41012 | 242 ft | 5 kts | 289° |
| 2026-04-16 09:17 | 30.32814 | -9.41067 | 241 ft | 9 kts | 270° |
| 2026-04-16 09:17 | 30.32814 | -9.41159 | 240 ft | 14 kts | 270° |
| 2026-04-16 09:18 | 30.32816 | -9.41284 | 238 ft | 18 kts | 271° |
| 2026-04-16 09:18 | 30.32824 | -9.41410 | 235 ft | 7 kts | 301° |
| 2026-04-16 09:18 | 30.32859 | -9.41450 | 236 ft | 9 kts | 302° |
| 2026-04-16 09:18 | 30.32878 | -9.41531 | 233 ft | 12 kts | 274° |
| 2026-04-16 09:19 | 30.32856 | -9.41631 | 234 ft | 14 kts | 230° |
| 2026-04-16 09:19 | 30.32827 | -9.41746 | 230 ft | 17 kts | 267° |
| 2026-04-16 09:19 | 30.32831 | -9.41895 | 228 ft | 21 kts | 272° |
| 2026-04-16 09:19 | 30.32833 | -9.42072 | 225 ft | 24 kts | 271° |
| 2026-04-16 09:20 | 30.32747 | -9.42190 | 223 ft | 19 kts | 184° |
| 2026-04-16 09:20 | 30.32648 | -9.42193 | 223 ft | 0 kts | 181° |
| 2026-04-16 09:21 | 30.32647 | -9.42193 | 223 ft | 1 kts | 181° |
| 2026-04-16 09:21 | 30.32581 | -9.42195 | 228 ft | 16 kts | 181° |
| 2026-04-16 09:22 | 30.32491 | -9.42245 | 228 ft | 15 kts | 252° |
| 2026-04-16 09:22 | 30.32484 | -9.42382 | 219 ft | 19 kts | 270° |
| 2026-04-16 09:22 | 30.32486 | -9.42554 | 217 ft | 24 kts | 271° |
| 2026-04-16 09:22 | 30.32482 | -9.42756 | 214 ft | 24 kts | 249° |
| 2026-04-16 09:23 | 30.32357 | -9.42794 | 214 ft | 18 kts | 165° |
| 2026-04-16 09:23 | 30.32301 | -9.42702 | 218 ft | 14 kts | 99° |
| 2026-04-16 09:23 | 30.32296 | -9.42576 | 215 ft | 25 kts | 92° |
| 2026-04-16 09:23 | 30.32282 | -9.42055 | 223 ft | 103 kts | 91° |
| 2026-04-16 09:24 | 30.32256 | -9.40960 | 256 ft | 166 kts | 91° |
| 2026-04-16 09:24 | 30.32223 | -9.39477 | 543 ft | 202 kts | 91° |
| 2026-04-16 09:24 | 30.32149 | -9.37840 | 1509 ft | 197 kts | 92° |
| 2026-04-16 09:24 | 30.32070 | -9.36235 | 2274 ft | 207 kts | 93° |
| 2026-04-16 09:25 | 30.31500 | -9.34656 | 2713 ft | 225 kts | 131° |
| 2026-04-16 09:25 | 30.30110 | -9.33830 | 3407 ft | 233 kts | 170° |
| 2026-04-16 09:25 | 30.28475 | -9.34152 | 3923 ft | 253 kts | 206° |
| 2026-04-16 09:25 | 30.27222 | -9.35624 | 4659 ft | 265 kts | 242° |
| 2026-04-16 09:26 | 30.26897 | -9.37718 | 5617 ft | 271 kts | 274° |
| 2026-04-16 09:26 | 30.27505 | -9.39792 | 6557 ft | 279 kts | 298° |
| 2026-04-16 09:26 | 30.28925 | -9.41353 | 7416 ft | 290 kts | 330° |
| 2026-04-16 09:26 | 30.30900 | -9.41874 | 8346 ft | 298 kts | 2° |
| 2026-04-16 09:27 | 30.32874 | -9.41178 | 9259 ft | 301 kts | 32° |
| 2026-04-16 09:27 | 30.34306 | -9.39443 | 10166 ft | 302 kts | 63° |
| 2026-04-16 09:27 | 30.34838 | -9.37098 | 10964 ft | 308 kts | 90° |
| 2026-04-16 09:27 | 30.34870 | -9.34582 | 11729 ft | 318 kts | 80° |
| 2026-04-16 09:28 | 30.35765 | -9.32238 | 12590 ft | 323 kts | 51° |
| 2026-04-16 09:28 | 30.37497 | -9.30627 | 13535 ft | 322 kts | 23° |
| 2026-04-16 09:28 | 30.39583 | -9.30259 | 14930 ft | 285 kts | 347° |
| 2026-04-16 09:28 | 30.41109 | -9.31312 | 16439 ft | 252 kts | 306° |
| 2026-04-16 09:29 | 30.41606 | -9.33235 | 16868 ft | 265 kts | 265° |
| 2026-04-16 09:29 | 30.40781 | -9.35288 | 16664 ft | 301 kts | 226° |
| 2026-04-16 09:29 | 30.38895 | -9.36345 | 16911 ft | 317 kts | 188° |
| 2026-04-16 09:29 | 30.36805 | -9.35764 | 17817 ft | 312 kts | 148° |
| 2026-04-16 09:30 | 30.35566 | -9.33777 | 18594 ft | 312 kts | 106° |
| 2026-04-16 09:30 | 30.35730 | -9.31275 | 18846 ft | 325 kts | 65° |
| 2026-04-16 09:30 | 30.37301 | -9.29391 | 18904 ft | 337 kts | 24° |
| 2026-04-16 09:30 | 30.39244 | -9.29047 | 19159 ft | 336 kts | 349° |
| 2026-04-16 09:31 | 30.32892 | -9.41010 | 19159 ft | 0 kts | 321° |
| 2026-04-16 09:33 | 30.32803 | -9.40991 | 242 ft | 2 kts | 318° |